Time;durP1;ratioP1;P1;durP2;ratioP2;P2;SDS_P1;SDS_P2;PMS_P1;PMS_P2;Temp;Humidity;BMP_temperature;BMP_pressure;BME280_temperature;BME280_humidity;BME280_pressure;Samples;Min_cycle;Max_cycle;Signal;HPM_P1;HPM_P2
2022/12/31 00:02:13;;;;;;;18.83;4.70;;;11.50;99.90;;;;;;5022185;28;20394;-27
2022/12/31 00:04:39;;;;;;;14.85;2.63;;;11.50;99.90;;;;;;5055933;28;20068;-27
2022/12/31 00:07:05;;;;;;;9.13;2.88;;;11.50;99.90;;;;;;5038294;28;20123;-27
2022/12/31 00:09:31;;;;;;;18.42;4.20;;;11.50;99.90;;;;;;5056531;28;20052;-27
2022/12/31 00:11:56;;;;;;;16.67;3.33;;;11.50;99.90;;;;;;5055931;28;20049;-27
2022/12/31 00:14:22;;;;;;;10.27;3.42;;;11.50;99.90;;;;;;5039263;28;20538;-27
2022/12/31 00:16:48;;;;;;;18.00;3.17;;;11.50;99.90;;;;;;5055868;28;20364;-27
2022/12/31 00:19:14;;;;;;;11.40;3.15;;;11.60;99.90;;;;;;5055891;28;20052;-27
2022/12/31 00:21:40;;;;;;;11.48;3.08;;;11.60;99.90;;;;;;5038006;28;20118;-27
2022/12/31 00:24:06;;;;;;;15.55;3.60;;;11.50;99.90;;;;;;5055764;28;20048;-27
2022/12/31 00:26:33;;;;;;;11.80;2.30;;;11.50;99.90;;;;;;5056245;28;20045;-28
2022/12/31 00:29:00;;;;;;;21.17;3.45;;;11.50;99.90;;;;;;5038485;28;20195;-27
2022/12/31 00:31:30;;;;;;;21.05;3.42;;;11.50;99.90;;;;;;5055323;28;20399;-27
2022/12/31 00:33:56;;;;;;;14.85;3.50;;;11.50;99.90;;;;;;5056078;28;20045;-27
2022/12/31 00:36:28;;;;;;;15.00;4.13;;;11.50;99.90;;;;;;5055536;28;20088;-27
2022/12/31 00:38:55;;;;;;;24.23;4.07;;;11.50;99.90;;;;;;5055854;28;20109;-27
2022/12/31 00:41:22;;;;;;;17.92;3.58;;;11.50;99.90;;;;;;5055445;28;20064;-27
2022/12/31 00:43:48;;;;;;;19.08;3.28;;;11.50;99.90;;;;;;5055105;28;20398;-27
2022/12/31 00:46:14;;;;;;;20.65;4.20;;;11.50;99.90;;;;;;5055909;28;20167;-27
2022/12/31 00:48:41;;;;;;;24.38;5.22;;;11.50;99.90;;;;;;5055288;28;20049;-27
2022/12/31 00:51:09;;;;;;;18.73;3.92;;;11.60;99.90;;;;;;5055266;28;20072;-27
2022/12/31 00:53:36;;;;;;;23.13;4.15;;;11.60;99.90;;;;;;5055941;28;20041;-27
2022/12/31 00:56:04;;;;;;;18.98;4.45;;;11.60;99.90;;;;;;5055125;28;20126;-27
2022/12/31 00:58:30;;;;;;;22.95;4.15;;;11.60;99.90;;;;;;5055088;28;20465;-27
2022/12/31 01:00:56;;;;;;;23.83;4.00;;;11.60;99.90;;;;;;5037337;28;20103;-27
2022/12/31 01:03:22;;;;;;;21.60;3.92;;;11.60;99.90;;;;;;5054744;28;20430;-27
2022/12/31 01:05:49;;;;;;;19.27;4.65;;;11.60;99.90;;;;;;5055633;28;20111;-27
2022/12/31 01:08:16;;;;;;;18.23;4.07;;;11.50;99.90;;;;;;5054935;28;20450;-27
2022/12/31 01:13:30;;;;;;;19.02;3.85;;;11.50;99.90;;;;;;5054766;28;20048;-27
2022/12/31 01:15:56;;;;;;;20.05;4.32;;;11.50;99.90;;;;;;5055603;28;20136;-27
2022/12/31 01:18:22;;;;;;;21.20;3.50;;;11.50;99.90;;;;;;5055278;28;20410;-27
2022/12/31 01:20:47;;;;;;;23.60;4.75;;;11.50;99.90;;;;;;5054971;28;20075;-27
2022/12/31 01:23:13;;;;;;;22.73;3.95;;;11.50;99.90;;;;;;5054640;28;20041;-27
2022/12/31 01:25:42;;;;;;;24.70;5.05;;;11.40;99.90;;;;;;5054640;28;20407;-27
2022/12/31 01:28:08;;;;;;;21.92;4.55;;;11.40;99.90;;;;;;5055074;28;20044;-27
2022/12/31 01:30:38;;;;;;;23.27;4.90;;;11.40;99.90;;;;;;5037048;28;20045;-27
2022/12/31 01:33:03;;;;;;;19.67;4.22;;;11.40;99.90;;;;;;5036678;28;20471;-27
2022/12/31 01:35:29;;;;;;;26.75;5.13;;;11.40;99.90;;;;;;5036355;28;20057;-27
2022/12/31 01:37:55;;;;;;;19.10;3.47;;;11.40;99.90;;;;;;5054599;28;20080;-27
2022/12/31 01:40:21;;;;;;;17.38;3.63;;;11.30;99.90;;;;;;5053701;28;20410;-27
2022/12/31 01:42:54;;;;;;;24.73;4.22;;;11.30;99.90;;;;;;5053936;28;20055;-27
2022/12/31 01:45:20;;;;;;;19.58;4.88;;;11.30;99.90;;;;;;5055114;28;20059;-27
2022/12/31 01:47:50;;;;;;;18.50;3.60;;;11.30;99.90;;;;;;5054192;28;20128;-27
2022/12/31 01:50:27;;;;;;;23.15;3.90;;;11.30;99.90;;;;;;5054205;28;20051;-27
2022/12/31 01:52:57;;;;;;;21.42;5.03;;;11.30;99.90;;;;;;5054347;28;20100;-27
2022/12/31 01:55:26;;;;;;;21.50;3.22;;;11.30;99.90;;;;;;5053795;28;20499;-27
2022/12/31 01:57:56;;;;;;;19.00;4.45;;;11.30;99.90;;;;;;5053951;28;20053;-27
2022/12/31 02:00:21;;;;;;;23.05;4.05;;;11.30;99.90;;;;;;5053631;28;20490;-27
2022/12/31 02:02:48;;;;;;;19.83;3.95;;;11.30;99.90;;;;;;5054513;28;20076;-27
2022/12/31 02:05:46;;;;;;;31.13;4.63;;;11.30;99.90;;;;;;5053996;28;20095;-27
2022/12/31 02:08:13;;;;;;;23.65;5.32;;;11.30;99.90;;;;;;5054216;28;20135;-27
2022/12/31 02:10:39;;;;;;;20.20;4.43;;;11.30;99.90;;;;;;5054130;28;20146;-27
2022/12/31 02:13:05;;;;;;;17.58;4.30;;;11.30;99.90;;;;;;5053720;28;20076;-27
2022/12/31 02:15:42;;;;;;;16.95;3.80;;;11.30;99.90;;;;;;5053750;28;20041;-27
2022/12/31 02:18:32;;;;;;;17.90;3.38;;;11.30;99.90;;;;;;5054607;28;20437;-27
2022/12/31 02:21:10;;;;;;;21.55;5.07;;;11.30;99.90;;;;;;5053722;28;20092;-27
2022/12/31 02:24:00;;;;;;;12.90;3.72;;;11.30;99.90;;;;;;5053602;28;20088;-27
2022/12/31 02:26:44;;;;;;;13.70;3.15;;;11.30;99.90;;;;;;5053942;28;20510;-27
2022/12/31 02:29:18;;;;;;;15.10;3.00;;;11.40;99.90;;;;;;5053577;28;20056;-27
2022/12/31 02:31:56;;;;;;;13.80;3.80;;;11.30;99.90;;;;;;5053513;28;20057;-27
2022/12/31 02:34:29;;;;;;;19.33;4.22;;;11.30;99.90;;;;;;5053482;28;20095;-27
2022/12/31 02:36:59;;;;;;;13.77;4.18;;;11.30;99.90;;;;;;5054393;28;20045;-27
2022/12/31 02:39:25;;;;;;;15.50;3.33;;;11.30;99.90;;;;;;5053752;28;20483;-27
2022/12/31 02:41:52;;;;;;;15.45;3.67;;;11.30;99.90;;;;;;5053689;28;20392;-27
2022/12/31 02:44:23;;;;;;;21.42;4.82;;;11.30;99.90;;;;;;5053968;28;20130;-27
2022/12/31 02:47:07;;;;;;;12.18;3.28;;;11.40;99.90;;;;;;5036148;28;20044;-27
2022/12/31 02:49:55;;;;;;;13.18;3.25;;;11.30;99.90;;;;;;5053373;28;20053;-27
2022/12/31 02:52:55;;;;;;;11.63;3.05;;;11.40;99.90;;;;;;5056218;28;20128;-27
2022/12/31 02:55:21;;;;;;;12.55;3.35;;;11.40;99.90;;;;;;5026257;28;20057;-27
2022/12/31 02:58:01;;;;;;;13.77;3.20;;;11.40;99.90;;;;;;5057308;28;20045;-27
2022/12/31 03:03:15;;;;;;;9.25;3.08;;;11.40;99.90;;;;;;5057148;28;20071;-27
2022/12/31 03:05:43;;;;;;;8.00;2.60;;;11.40;99.90;;;;;;5057295;28;20128;-27
2022/12/31 03:08:09;;;;;;;10.70;2.78;;;11.40;99.90;;;;;;5057750;28;20494;-27
2022/12/31 03:10:35;;;;;;;13.70;2.70;;;11.40;99.90;;;;;;5057188;28;20128;-27
2022/12/31 03:13:01;;;;;;;12.95;2.53;;;11.30;99.90;;;;;;5057067;28;20414;-27
2022/12/31 03:15:30;;;;;;;8.13;2.55;;;11.30;99.90;;;;;;5040274;28;20418;-27
2022/12/31 03:17:55;;;;;;;12.10;2.63;;;11.30;99.90;;;;;;5057543;28;20490;-27
2022/12/31 03:23:12;;;;;;;14.90;3.58;;;11.20;99.90;;;;;;5057252;28;20155;-27
2022/12/31 03:25:38;;;;;;;10.88;1.98;;;11.20;99.90;;;;;;5057706;28;20151;-27
2022/12/31 03:28:11;;;;;;;10.70;2.58;;;11.20;99.90;;;;;;5057641;28;20475;-27
2022/12/31 03:30:39;;;;;;;11.52;2.45;;;11.10;99.90;;;;;;5057474;28;20055;-27
2022/12/31 03:33:06;;;;;;;10.65;2.30;;;11.10;99.90;;;;;;5056681;28;20124;-27
2022/12/31 03:35:34;;;;;;;14.65;2.80;;;11.10;99.90;;;;;;5039669;28;20471;-27
2022/12/31 03:38:00;;;;;;;11.45;2.25;;;11.00;99.90;;;;;;5057188;28;20083;-27
2022/12/31 03:40:28;;;;;;;8.38;2.00;;;11.00;99.90;;;;;;5057151;28;20053;-27
2022/12/31 03:42:54;;;;;;;10.20;2.50;;;10.90;99.90;;;;;;5057128;28;20081;-27
2022/12/31 03:45:20;;;;;;;12.98;2.10;;;11.00;99.90;;;;;;5056554;28;20060;-27
2022/12/31 03:47:46;;;;;;;6.95;1.80;;;10.90;99.90;;;;;;5056462;28;20041;-27
2022/12/31 03:50:14;;;;;;;10.82;1.95;;;10.90;99.90;;;;;;5056410;28;20048;-27
2022/12/31 03:52:40;;;;;;;10.60;1.60;;;10.90;99.90;;;;;;5057068;28;20142;-27
2022/12/31 03:55:07;;;;;;;8.38;1.50;;;10.90;99.90;;;;;;5056329;28;20146;-27
2022/12/31 03:57:33;;;;;;;7.25;1.88;;;10.90;99.90;;;;;;5056331;28;20051;-27
2022/12/31 03:59:59;;;;;;;6.68;1.63;;;10.90;99.90;;;;;;5056176;28;20084;-27
2022/12/31 04:02:25;;;;;;;8.80;1.50;;;10.90;99.90;;;;;;5039229;28;20076;-27
2022/12/31 04:04:50;;;;;;;4.88;1.02;;;10.90;99.90;;;;;;5055388;28;20479;-27
2022/12/31 04:07:16;;;;;;;7.32;1.30;;;10.80;99.90;;;;;;5056102;28;20466;-27
2022/12/31 04:09:42;;;;;;;11.75;1.67;;;10.90;99.90;;;;;;5056365;28;20129;-27
2022/12/31 04:12:08;;;;;;;8.10;1.40;;;10.90;99.90;;;;;;5056016;28;20565;-27
2022/12/31 04:14:34;;;;;;;8.02;1.27;;;10.90;99.90;;;;;;5055990;28;20041;-27
2022/12/31 04:17:00;;;;;;;6.75;1.25;;;10.90;99.90;;;;;;5055906;28;20083;-27
2022/12/31 04:19:26;;;;;;;5.10;1.33;;;10.80;99.90;;;;;;5055857;28;20045;-27
2022/12/31 04:21:52;;;;;;;8.15;1.15;;;10.80;99.90;;;;;;5055803;28;20128;-27
2022/12/31 04:24:17;;;;;;;6.97;1.25;;;10.80;99.90;;;;;;5055771;28;20052;-27
2022/12/31 04:26:43;;;;;;;9.23;1.40;;;10.80;99.90;;;;;;5056565;28;20049;-27
2022/12/31 04:29:09;;;;;;;10.57;1.30;;;10.80;99.90;;;;;;5038133;28;20502;-27
2022/12/31 04:31:35;;;;;;;8.25;1.10;;;10.80;99.90;;;;;;5056430;28;20049;-27
2022/12/31 04:34:01;;;;;;;12.80;1.65;;;10.80;99.90;;;;;;5055501;28;20044;-27
2022/12/31 04:36:27;;;;;;;5.75;1.10;;;10.70;99.90;;;;;;5055573;28;20053;-27
2022/12/31 04:38:53;;;;;;;7.80;1.25;;;10.70;99.90;;;;;;5038640;28;20037;-27
2022/12/31 04:41:19;;;;;;;8.13;1.50;;;10.70;99.90;;;;;;5055474;28;20040;-27
2022/12/31 04:43:51;;;;;;;9.90;1.60;;;10.70;99.90;;;;;;5056034;28;20085;-26
2022/12/31 04:46:19;;;;;;;8.43;1.60;;;10.60;99.90;;;;;;5055714;28;20049;-26
2022/12/31 04:48:46;;;;;;;9.43;1.60;;;10.70;99.90;;;;;;5056147;28;20149;-26
2022/12/31 04:51:12;;;;;;;16.33;2.30;;;10.60;99.90;;;;;;5056094;28;20049;-26
2022/12/31 04:53:38;;;;;;;7.20;1.42;;;10.60;99.90;;;;;;5055174;28;20086;-27
2022/12/31 04:56:04;;;;;;;8.73;1.60;;;10.60;99.90;;;;;;5055161;28;20041;-26
2022/12/31 04:58:30;;;;;;;6.28;1.60;;;10.60;99.90;;;;;;5055581;28;20055;-27
2022/12/31 05:00:56;;;;;;;7.15;1.67;;;10.50;99.90;;;;;;5055072;28;20136;-27
2022/12/31 05:03:23;;;;;;;12.68;2.28;;;10.50;99.90;;;;;;5054963;28;20053;-27
2022/12/31 05:05:50;;;;;;;9.27;1.88;;;10.50;99.90;;;;;;5055025;28;20063;-27
2022/12/31 05:08:16;;;;;;;10.73;2.28;;;10.50;99.90;;;;;;5054673;28;20479;-27
2022/12/31 05:10:44;;;;;;;11.90;2.47;;;10.50;99.90;;;;;;5054914;28;20047;-27
2022/12/31 05:13:11;;;;;;;9.00;2.20;;;10.60;99.90;;;;;;5054771;28;20045;-27
2022/12/31 05:15:36;;;;;;;8.88;2.42;;;10.60;99.90;;;;;;5054097;28;20386;-27
2022/12/31 05:18:02;;;;;;;12.45;3.83;;;10.50;99.90;;;;;;5037979;28;20059;-27
2022/12/31 05:20:28;;;;;;;8.95;2.70;;;10.50;99.90;;;;;;5055562;28;20493;-27
2022/12/31 05:22:54;;;;;;;12.30;2.97;;;10.50;99.90;;;;;;5055195;28;20056;-27
2022/12/31 05:25:20;;;;;;;9.63;3.03;;;10.60;99.90;;;;;;5054693;28;20049;-27
2022/12/31 05:27:46;;;;;;;8.00;3.00;;;10.50;99.90;;;;;;5055119;28;20144;-27
2022/12/31 05:30:12;;;;;;;12.18;4.15;;;10.50;99.90;;;;;;5055069;28;20061;-27
2022/12/31 05:32:38;;;;;;;13.82;3.70;;;10.50;99.90;;;;;;5054622;28;20426;-27
2022/12/31 05:35:04;;;;;;;14.82;3.20;;;10.50;99.90;;;;;;5036695;28;20041;-27
2022/12/31 05:37:31;;;;;;;12.25;3.70;;;10.40;99.90;;;;;;5036818;28;20048;-27
2022/12/31 05:39:57;;;;;;;10.45;3.25;;;10.40;99.90;;;;;;5054351;28;20056;-27
2022/12/31 05:42:23;;;;;;;12.15;3.17;;;10.50;99.90;;;;;;5054329;28;20088;-27
2022/12/31 05:44:48;;;;;;;9.88;3.85;;;10.50;99.90;;;;;;5054225;28;20048;-27
2022/12/31 05:47:15;;;;;;;11.02;3.15;;;10.50;99.90;;;;;;5054215;28;20049;-27
2022/12/31 05:49:40;;;;;;;10.60;2.97;;;10.50;99.90;;;;;;5037449;28;20128;-27
2022/12/31 05:52:06;;;;;;;9.18;2.95;;;10.50;99.90;;;;;;5054154;28;20127;-27
2022/12/31 05:54:32;;;;;;;10.50;3.22;;;10.50;99.90;;;;;;5054310;28;20051;-27
2022/12/31 05:56:58;;;;;;;12.05;2.90;;;10.50;99.90;;;;;;5054073;28;20471;-27
2022/12/31 05:59:24;;;;;;;12.10;2.88;;;10.50;99.90;;;;;;5036864;28;20089;-27
2022/12/31 06:01:50;;;;;;;6.85;2.13;;;10.60;99.90;;;;;;5036301;28;20052;-27
2022/12/31 06:04:16;;;;;;;8.10;1.90;;;10.50;99.90;;;;;;5053946;28;20057;-27
2022/12/31 06:06:42;;;;;;;7.45;1.75;;;10.50;99.90;;;;;;5053900;28;20072;-26
2022/12/31 06:09:08;;;;;;;7.93;2.75;;;10.50;99.90;;;;;;5020624;28;20049;-27
2022/12/31 06:11:34;;;;;;;5.20;1.65;;;10.50;99.90;;;;;;5053825;28;20045;-27
2022/12/31 06:13:59;;;;;;;6.00;1.25;;;10.40;99.90;;;;;;5036790;28;20080;-28
2022/12/31 06:16:26;;;;;;;4.60;1.33;;;10.40;99.90;;;;;;5053805;28;20520;-27
2022/12/31 06:18:51;;;;;;;3.20;1.08;;;10.40;99.90;;;;;;5036682;28;20056;-27
2022/12/31 06:21:19;;;;;;;6.50;1.70;;;10.30;99.90;;;;;;5035958;28;20041;-27
2022/12/31 06:23:46;;;;;;;5.05;1.00;;;10.30;99.90;;;;;;5054184;28;20048;-27
2022/12/31 06:26:12;;;;;;;8.80;2.35;;;10.30;99.90;;;;;;5020013;28;20375;-27
2022/12/31 06:28:38;;;;;;;10.93;2.35;;;10.30;99.90;;;;;;5036661;28;20041;-28
2022/12/31 06:31:06;;;;;;;9.38;3.13;;;10.30;99.90;;;;;;5053598;28;20103;-28
2022/12/31 06:33:33;;;;;;;8.93;2.60;;;10.20;99.90;;;;;;5054003;28;20037;-28
2022/12/31 06:36:02;;;;;;;11.60;3.08;;;10.20;99.90;;;;;;5053565;28;20045;-27
2022/12/31 06:38:32;;;;;;;9.02;3.63;;;10.30;99.90;;;;;;5053520;28;20127;-27
2022/12/31 06:41:07;;;;;;;7.47;4.13;;;10.30;99.90;;;;;;5053510;28;20453;-28
2022/12/31 06:43:34;;;;;;;8.85;3.95;;;10.20;99.90;;;;;;5020266;28;20048;-28
2022/12/31 06:46:03;;;;;;;10.88;4.78;;;10.20;99.90;;;;;;5053451;28;20080;-28
2022/12/31 06:48:29;;;;;;;10.25;4.20;;;10.30;99.90;;;;;;5036054;28;20064;-29
2022/12/31 06:50:56;;;;;;;11.18;5.40;;;10.20;99.90;;;;;;5053351;28;20052;-29
2022/12/31 06:53:22;;;;;;;9.63;5.03;;;10.20;99.90;;;;;;5053503;28;20045;-29
2022/12/31 06:55:48;;;;;;;10.10;5.70;;;10.20;99.90;;;;;;5054098;28;20482;-29
2022/12/31 06:58:16;;;;;;;9.10;5.80;;;10.20;99.90;;;;;;5052813;28;20491;-29
2022/12/31 07:01:18;;;;;;;8.98;5.57;;;10.10;99.90;;;;;;5053240;28;20045;-29
2022/12/31 07:04:12;;;;;;;13.93;8.02;;;10.20;99.90;;;;;;5053490;28;20063;-29
2022/12/31 07:07:18;;;;;;;15.88;8.48;;;10.20;99.90;;;;;;5053691;28;20438;-29
2022/12/31 07:10:07;;;;;;;16.42;9.05;;;10.20;99.90;;;;;;5053910;28;20098;-29
2022/12/31 07:13:07;;;;;;;15.23;8.77;;;10.10;99.90;;;;;;5053854;28;20049;-30
2022/12/31 07:15:45;;;;;;;15.45;8.77;;;10.20;99.90;;;;;;5052112;28;20053;-30
2022/12/31 07:18:38;;;;;;;12.57;9.20;;;10.20;99.90;;;;;;5036005;28;20132;-30
2022/12/31 07:21:11;;;;;;;12.50;8.97;;;10.20;99.90;;;;;;5053308;28;20410;-30
2022/12/31 07:23:38;;;;;;;14.23;8.45;;;10.20;99.90;;;;;;5053589;28;20076;-29
2022/12/31 07:26:26;;;;;;;9.30;7.10;;;10.20;99.90;;;;;;5052945;28;20048;-30
2022/12/31 07:29:25;;;;;;;11.57;8.43;;;10.20;99.90;;;;;;5052999;28;20041;-30
2022/12/31 07:32:01;;;;;;;8.73;7.40;;;10.20;99.90;;;;;;5035772;28;20045;-30
2022/12/31 07:34:29;;;;;;;10.20;6.45;;;10.10;99.90;;;;;;5053221;28;20091;-29
2022/12/31 07:37:21;;;;;;;15.70;8.10;;;10.10;99.90;;;;;;5053653;28;20091;-30
2022/12/31 07:40:07;;;;;;;10.93;6.53;;;10.10;99.90;;;;;;5055899;28;20487;-29
2022/12/31 07:42:44;;;;;;;8.63;6.13;;;10.10;99.90;;;;;;5056582;28;20048;-28
2022/12/31 07:45:23;;;;;;;7.25;5.65;;;10.10;99.90;;;;;;5056521;28;20150;-30
2022/12/31 07:47:49;;;;;;;7.63;4.55;;;10.10;99.90;;;;;;5056470;28;20053;-30
2022/12/31 07:50:17;;;;;;;12.35;5.63;;;10.00;99.90;;;;;;5056386;28;20482;-29
2022/12/31 07:52:44;;;;;;;8.82;6.28;;;10.00;99.90;;;;;;5056281;28;20049;-29
2022/12/31 07:55:10;;;;;;;9.10;6.65;;;10.00;99.90;;;;;;5056645;28;20059;-29
2022/12/31 07:57:54;;;;;;;12.73;8.40;;;10.00;99.90;;;;;;5056223;28;20053;-30
2022/12/31 08:00:20;;;;;;;9.82;6.97;;;10.00;99.90;;;;;;5022939;28;20084;-31
2022/12/31 08:02:46;;;;;;;7.22;5.25;;;10.00;99.90;;;;;;5056185;28;20087;-30
2022/12/31 08:05:25;;;;;;;9.30;6.93;;;10.10;99.90;;;;;;5055648;28;20064;-30
2022/12/31 08:08:07;;;;;;;8.20;6.68;;;10.10;99.90;;;;;;5056066;28;20053;-30
2022/12/31 08:10:51;;;;;;;8.15;6.97;;;10.10;99.90;;;;;;5056534;28;20051;-30
2022/12/31 08:13:17;;;;;;;7.32;6.40;;;10.10;99.90;;;;;;5056325;28;20056;-31
2022/12/31 08:15:43;;;;;;;7.78;6.97;;;10.20;99.90;;;;;;5056435;28;20399;-31
2022/12/31 08:18:09;;;;;;;8.60;7.60;;;10.20;99.90;;;;;;5055877;28;20138;-31
2022/12/31 08:21:02;;;;;;;10.23;7.43;;;10.20;99.90;;;;;;5021560;28;20052;-30
2022/12/31 08:23:39;;;;;;;8.85;7.70;;;10.20;99.90;;;;;;5056278;28;20368;-31
2022/12/31 08:26:26;;;;;;;10.65;8.13;;;10.20;99.90;;;;;;5038399;28;20051;-31
2022/12/31 08:29:04;;;;;;;10.10;9.05;;;10.20;99.90;;;;;;5055528;28;20049;-30
2022/12/31 08:31:53;;;;;;;9.63;8.63;;;10.20;99.90;;;;;;5056200;28;20049;-31
2022/12/31 08:34:38;;;;;;;9.98;8.40;;;10.30;99.90;;;;;;5037666;28;20044;-31
2022/12/31 08:37:12;;;;;;;9.35;7.47;;;10.30;99.90;;;;;;5055481;28;20045;-31
2022/12/31 08:39:38;;;;;;;9.18;7.45;;;10.30;99.90;;;;;;5055411;28;20514;-31
2022/12/31 08:42:16;;;;;;;8.35;7.15;;;10.40;99.90;;;;;;5038135;28;20049;-30
2022/12/31 08:45:07;;;;;;;7.32;6.63;;;10.40;99.90;;;;;;5055330;28;20051;-31
2022/12/31 08:47:42;;;;;;;7.40;5.93;;;10.50;99.90;;;;;;5054733;28;20053;-31
2022/12/31 08:50:15;;;;;;;9.00;6.93;;;10.60;99.90;;;;;;5055118;28;20084;-31
2022/12/31 08:52:41;;;;;;;15.90;7.45;;;10.70;99.90;;;;;;5055185;28;20048;-31
2022/12/31 08:55:07;;;;;;;15.07;11.52;;;10.70;99.90;;;;;;5055730;28;20051;-31
2022/12/31 08:57:51;;;;;;;10.82;9.73;;;10.80;99.90;;;;;;5055120;28;20040;-30
2022/12/31 09:00:19;;;;;;;8.88;7.55;;;10.90;99.90;;;;;;5054961;28;20391;-30
2022/12/31 09:03:14;;;;;;;10.98;8.73;;;11.00;99.90;;;;;;5054996;28;20056;-30
2022/12/31 09:06:11;;;;;;;9.68;8.60;;;11.10;99.90;;;;;;5034835;28;20423;-30
2022/12/31 09:08:52;;;;;;;8.10;7.38;;;11.20;99.90;;;;;;5035900;28;20049;-30
2022/12/31 09:11:20;;;;;;;9.90;9.00;;;11.40;99.90;;;;;;5035581;28;20084;-29
2022/12/31 09:14:02;;;;;;;9.13;8.23;;;11.50;99.90;;;;;;5034856;28;20095;-29
2022/12/31 09:17:00;;;;;;;8.52;7.60;;;11.60;99.90;;;;;;5035249;28;20053;-29
2022/12/31 09:19:26;;;;;;;9.02;8.13;;;11.60;99.90;;;;;;5007408;28;20054;-29
2022/12/31 09:21:53;;;;;;;8.18;7.05;;;11.80;99.90;;;;;;5034743;28;20052;-29
2022/12/31 09:24:19;;;;;;;8.80;5.78;;;11.80;99.90;;;;;;5034750;28;20068;-29
2022/12/31 09:27:07;;;;;;;5.55;4.88;;;11.90;99.90;;;;;;5035031;28;20049;-29
2022/12/31 09:29:36;;;;;;;5.78;4.13;;;11.90;99.90;;;;;;5034731;28;20045;-29
2022/12/31 09:32:14;;;;;;;4.75;3.55;;;12.00;99.90;;;;;;5034613;28;20041;-29
2022/12/31 09:34:45;;;;;;;5.00;3.03;;;12.00;99.90;;;;;;5035366;28;20392;-29
2022/12/31 09:37:44;;;;;;;5.57;3.17;;;12.10;99.90;;;;;;5034512;28;20052;-29
2022/12/31 09:40:52;;;;;;;4.18;2.50;;;12.20;99.90;;;;;;5034456;28;20060;-29
2022/12/31 09:43:27;;;;;;;8.35;2.40;;;12.20;99.90;;;;;;5034410;28;20048;-30
2022/12/31 09:46:22;;;;;;;3.35;1.65;;;12.30;99.90;;;;;;5034378;28;20046;-30
2022/12/31 09:49:24;;;;;;;4.15;1.70;;;12.40;99.90;;;;;;5035134;28;20104;-30
2022/12/31 09:51:50;;;;;;;4.15;1.27;;;12.40;99.90;;;;;;5034631;28;20076;-29
2022/12/31 09:54:24;;;;;;;4.85;1.70;;;12.50;99.90;;;;;;5034106;28;20484;-29
2022/12/31 09:57:07;;;;;;;3.22;1.40;;;12.50;99.90;;;;;;5034132;28;20085;-30
2022/12/31 09:59:45;;;;;;;3.53;0.90;;;12.50;99.90;;;;;;5034207;28;20095;-30
2022/12/31 10:02:58;;;;;;;6.50;1.13;;;12.60;99.90;;;;;;5000360;28;20057;-29
2022/12/31 10:05:42;;;;;;;3.45;1.10;;;12.60;99.90;;;;;;5034618;28;20041;-30
2022/12/31 10:08:45;;;;;;;5.88;1.95;;;12.60;99.90;;;;;;5017202;28;20088;-30
2022/12/31 10:11:29;;;;;;;3.88;0.98;;;12.70;99.90;;;;;;4967802;28;20140;-30
2022/12/31 10:14:01;;;;;;;4.97;1.30;;;12.70;99.90;;;;;;5033656;28;20048;-30
2022/12/31 10:16:50;;;;;;;2.50;0.52;;;12.80;99.90;;;;;;5033988;28;20045;-30
2022/12/31 10:19:55;;;;;;;4.05;0.50;;;12.80;99.90;;;;;;5034397;28;20053;-30
2022/12/31 10:22:47;;;;;;;6.78;1.50;;;13.00;99.90;;;;;;5033802;28;20056;-30
2022/12/31 10:26:04;;;;;;;6.28;1.50;;;13.00;99.90;;;;;;5034060;28;20049;-30
2022/12/31 10:28:43;;;;;;;7.93;1.95;;;13.10;99.90;;;;;;4973725;28;20483;-30
2022/12/31 10:31:30;;;;;;;9.80;1.52;;;13.10;99.90;;;;;;5033688;28;20053;-30
2022/12/31 10:34:15;;;;;;;7.47;1.20;;;13.10;99.90;;;;;;5015741;28;20125;-30
2022/12/31 10:37:02;;;;;;;10.30;2.22;;;13.20;99.90;;;;;;5033836;28;20049;-30
2022/12/31 10:39:53;;;;;;;4.88;1.00;;;13.20;99.90;;;;;;5016821;28;20052;-30
2022/12/31 10:42:25;;;;;;;9.13;1.80;;;13.10;99.90;;;;;;5017794;28;20053;-30
2022/12/31 10:45:14;;;;;;;8.18;1.40;;;13.10;99.90;;;;;;5033505;28;20045;-29
2022/12/31 10:47:46;;;;;;;9.82;1.63;;;13.10;99.90;;;;;;5033526;28;20088;-29
2022/12/31 10:50:42;;;;;;;8.80;1.50;;;13.10;99.90;;;;;;5033395;28;20057;-29
2022/12/31 10:53:48;;;;;;;7.43;1.83;;;13.10;99.90;;;;;;5033364;28;20050;-30
2022/12/31 10:56:51;;;;;;;7.88;1.73;;;13.20;99.90;;;;;;5033415;28;20049;-29
2022/12/31 10:59:38;;;;;;;9.65;2.22;;;13.20;99.90;;;;;;5033742;28;20088;-29
2022/12/31 11:02:19;;;;;;;6.97;1.88;;;13.20;99.90;;;;;;5033353;28;20049;-30
2022/12/31 11:05:06;;;;;;;4.68;1.52;;;13.30;99.90;;;;;;5049017;28;20057;-29
2022/12/31 11:08:11;;;;;;;11.85;2.45;;;13.30;99.90;;;;;;5053779;28;20060;-29
2022/12/31 11:10:59;;;;;;;10.70;2.08;;;13.20;99.90;;;;;;5053808;28;20052;-29
2022/12/31 11:13:46;;;;;;;11.18;3.00;;;13.20;99.90;;;;;;5036361;28;20041;-29
2022/12/31 11:16:43;;;;;;;8.85;2.40;;;13.30;99.90;;;;;;5057160;28;20045;-29
2022/12/31 11:19:24;;;;;;;15.85;2.83;;;13.30;99.90;;;;;;5057841;28;20051;-29
2022/12/31 11:21:49;;;;;;;12.57;2.22;;;13.30;99.90;;;;;;5057871;28;20055;-29
2022/12/31 11:24:42;;;;;;;9.07;2.47;;;13.40;99.90;;;;;;5056961;28;20037;-29
2022/12/31 11:27:26;;;;;;;12.18;3.10;;;13.40;99.90;;;;;;5056988;28;20041;-29
2022/12/31 11:29:58;;;;;;;;;;;13.50;99.90;;;;;;5057352;28;20048;-29
2022/12/31 11:32:30;;;;;;;17.35;3.10;;;13.40;99.90;;;;;;5056811;28;19966;-29
2022/12/31 11:34:58;;;;;;;13.40;2.55;;;13.30;99.90;;;;;;5057065;28;20056;-28
2022/12/31 11:37:33;;;;;;;15.85;3.78;;;13.20;99.90;;;;;;5056699;28;20056;-28
2022/12/31 11:40:18;;;;;;;16.85;2.92;;;13.20;99.90;;;;;;5056733;28;20049;-29
2022/12/31 11:43:05;;;;;;;21.75;3.53;;;13.10;99.90;;;;;;5056589;28;20091;-28
2022/12/31 11:45:36;;;;;;;16.80;3.15;;;13.20;99.90;;;;;;5056877;28;20085;-29
2022/12/31 11:48:30;;;;;;;11.40;2.60;;;13.20;99.90;;;;;;5039249;28;20062;-28
2022/12/31 11:51:17;;;;;;;13.75;2.80;;;13.20;99.90;;;;;;5039802;28;20088;-28
2022/12/31 11:54:23;;;;;;;12.88;3.25;;;13.20;99.90;;;;;;5038516;28;20053;-28
2022/12/31 11:57:17;;;;;;;13.63;3.17;;;13.10;99.90;;;;;;5036528;28;20053;-28
2022/12/31 11:59:43;;;;;;;13.52;3.25;;;13.20;99.90;;;;;;5019412;28;20041;-28
2022/12/31 12:02:32;;;;;;;14.20;3.10;;;13.30;99.90;;;;;;5036389;28;20056;-28
2022/12/31 12:05:04;;;;;;;13.38;2.67;;;13.20;99.90;;;;;;5036628;28;20080;-27
2022/12/31 12:07:31;;;;;;;7.90;2.25;;;13.20;99.90;;;;;;5037096;28;20447;-27
2022/12/31 12:10:00;;;;;;;13.45;1.95;;;13.20;99.90;;;;;;5018787;28;20125;-27
2022/12/31 12:12:37;;;;;;;9.77;2.28;;;13.30;99.90;;;;;;5036094;28;20045;-27
2022/12/31 12:15:07;;;;;;;10.57;3.58;;;13.30;99.90;;;;;;5036679;28;20049;-28
2022/12/31 12:17:34;;;;;;;13.40;2.53;;;13.30;99.90;;;;;;5018606;28;20053;-27
2022/12/31 12:20:17;;;;;;;12.07;2.08;;;13.30;99.90;;;;;;5018467;28;20072;-28
2022/12/31 12:22:47;;;;;;;;;;;13.20;99.90;;;;;;5018961;28;20080;-27
2022/12/31 12:25:19;;;;;;;9.55;2.45;;;13.20;99.90;;;;;;5035402;28;19921;-27
2022/12/31 12:27:46;;;;;;;9.82;2.28;;;13.30;99.90;;;;;;5035928;28;20053;-28
2022/12/31 12:30:26;;;;;;;12.00;2.25;;;13.30;99.90;;;;;;5036242;28;20104;-28
2022/12/31 12:33:03;;;;;;;9.88;2.40;;;13.30;99.90;;;;;;5034242;28;20574;-29
2022/12/31 12:35:38;;;;;;;17.95;3.40;;;13.40;99.90;;;;;;5034239;28;20495;-28
2022/12/31 12:38:11;;;;;;;10.43;2.50;;;13.40;99.90;;;;;;5035690;28;20045;-28
2022/12/31 12:40:38;;;;;;;9.52;2.20;;;13.40;99.90;;;;;;5035352;28;20471;-29
2022/12/31 12:43:04;;;;;;;16.00;2.35;;;13.50;99.90;;;;;;5035525;28;20124;-28
2022/12/31 12:45:46;;;;;;;14.38;3.15;;;13.50;99.90;;;;;;5035177;28;20129;-28
2022/12/31 12:48:21;;;;;;;11.48;3.45;;;13.50;99.90;;;;;;5036060;28;20089;-28
2022/12/31 12:50:48;;;;;;;12.73;2.90;;;13.30;99.90;;;;;;5018042;28;20049;-28
2022/12/31 12:53:23;;;;;;;13.55;2.83;;;13.30;99.90;;;;;;5017841;28;20096;-28
2022/12/31 12:56:23;;;;;;;15.35;3.03;;;13.30;99.90;;;;;;5035454;28;20056;-29
2022/12/31 12:59:26;;;;;;;12.48;2.60;;;13.30;99.90;;;;;;5004203;28;20049;-29
2022/12/31 13:02:21;;;;;;;15.15;2.97;;;13.30;99.90;;;;;;5035298;28;20064;-29
2022/12/31 13:05:20;;;;;;;12.15;2.53;;;13.30;99.90;;;;;;5035206;28;20100;-29
2022/12/31 13:07:55;;;;;;;12.88;3.25;;;13.30;99.90;;;;;;5021280;28;20100;-29
2022/12/31 13:10:49;;;;;;;16.48;3.00;;;13.30;99.90;;;;;;5035318;28;20431;-29
2022/12/31 13:13:42;;;;;;;16.02;3.10;;;13.40;99.90;;;;;;5034887;28;20049;-29
2022/12/31 13:16:17;;;;;;;12.32;2.58;;;13.30;99.90;;;;;;5035883;28;20115;-29
2022/12/31 13:18:53;;;;;;;14.75;3.42;;;13.30;99.90;;;;;;5034887;28;20045;-29
2022/12/31 13:21:27;;;;;;;16.67;4.30;;;13.30;99.90;;;;;;5034914;28;20084;-29
2022/12/31 13:23:56;;;;;;;9.07;2.78;;;13.30;99.90;;;;;;5035205;28;20120;-29
2022/12/31 13:26:22;;;;;;;13.50;2.88;;;13.30;99.90;;;;;;5017540;28;20045;-29